sensor_id;sensor_type;location;lat;lon;timestamp;P1;durP1;ratioP1;P2;durP2;ratioP2
18445;SDS011;9352;50.888;4.466;2023-09-07T00:01:16;8.50;;;5.70;;
18445;SDS011;9352;50.888;4.466;2023-09-07T00:03:44;10.88;;;6.15;;
18445;SDS011;9352;50.888;4.466;2023-09-07T00:06:11;13.60;;;6.18;;
18445;SDS011;9352;50.888;4.466;2023-09-07T00:08:38;12.65;;;6.13;;
18445;SDS011;9352;50.888;4.466;2023-09-07T00:11:05;7.50;;;5.70;;
18445;SDS011;9352;50.888;4.466;2023-09-07T00:13:33;6.70;;;5.88;;
18445;SDS011;9352;50.888;4.466;2023-09-07T00:16:00;9.73;;;5.97;;
18445;SDS011;9352;50.888;4.466;2023-09-07T00:18:28;11.77;;;6.32;;
18445;SDS011;9352;50.888;4.466;2023-09-07T00:20:56;15.75;;;6.82;;
18445;SDS011;9352;50.888;4.466;2023-09-07T00:23:23;10.90;;;6.22;;
18445;SDS011;9352;50.888;4.466;2023-09-07T00:25:50;11.05;;;6.53;;
18445;SDS011;9352;50.888;4.466;2023-09-07T00:28:16;11.20;;;6.43;;
18445;SDS011;9352;50.888;4.466;2023-09-07T00:30:43;8.30;;;5.93;;
18445;SDS011;9352;50.888;4.466;2023-09-07T00:33:10;7.97;;;6.53;;
18445;SDS011;9352;50.888;4.466;2023-09-07T00:35:37;18.05;;;6.97;;
18445;SDS011;9352;50.888;4.466;2023-09-07T00:38:06;9.75;;;6.13;;
18445;SDS011;9352;50.888;4.466;2023-09-07T00:40:32;9.55;;;6.35;;
18445;SDS011;9352;50.888;4.466;2023-09-07T00:43:00;7.63;;;6.32;;
18445;SDS011;9352;50.888;4.466;2023-09-07T00:45:29;10.38;;;6.50;;
18445;SDS011;9352;50.888;4.466;2023-09-07T00:47:56;8.57;;;6.63;;
18445;SDS011;9352;50.888;4.466;2023-09-07T00:50:23;10.25;;;6.50;;
18445;SDS011;9352;50.888;4.466;2023-09-07T00:52:50;8.40;;;6.07;;
18445;SDS011;9352;50.888;4.466;2023-09-07T00:55:19;10.38;;;6.38;;
18445;SDS011;9352;50.888;4.466;2023-09-07T00:57:46;9.07;;;6.20;;
18445;SDS011;9352;50.888;4.466;2023-09-07T01:00:14;7.78;;;6.05;;
18445;SDS011;9352;50.888;4.466;2023-09-07T01:02:41;12.27;;;6.90;;
18445;SDS011;9352;50.888;4.466;2023-09-07T01:05:10;8.73;;;6.10;;
18445;SDS011;9352;50.888;4.466;2023-09-07T01:07:38;12.55;;;6.28;;
18445;SDS011;9352;50.888;4.466;2023-09-07T01:10:09;10.00;;;6.20;;
18445;SDS011;9352;50.888;4.466;2023-09-07T01:12:38;13.02;;;6.50;;
18445;SDS011;9352;50.888;4.466;2023-09-07T01:15:06;10.93;;;6.47;;
18445;SDS011;9352;50.888;4.466;2023-09-07T01:17:35;10.63;;;6.30;;
18445;SDS011;9352;50.888;4.466;2023-09-07T01:20:03;10.02;;;5.75;;
18445;SDS011;9352;50.888;4.466;2023-09-07T01:22:36;8.43;;;6.32;;
18445;SDS011;9352;50.888;4.466;2023-09-07T01:25:03;7.70;;;6.07;;
18445;SDS011;9352;50.888;4.466;2023-09-07T01:27:32;8.60;;;5.80;;
18445;SDS011;9352;50.888;4.466;2023-09-07T01:29:59;7.38;;;5.70;;
18445;SDS011;9352;50.888;4.466;2023-09-07T01:32:27;15.65;;;6.68;;
18445;SDS011;9352;50.888;4.466;2023-09-07T01:34:55;10.65;;;6.20;;
18445;SDS011;9352;50.888;4.466;2023-09-07T01:37:24;14.05;;;6.43;;
18445;SDS011;9352;50.888;4.466;2023-09-07T01:39:52;10.23;;;6.22;;
18445;SDS011;9352;50.888;4.466;2023-09-07T01:42:19;9.75;;;6.13;;
18445;SDS011;9352;50.888;4.466;2023-09-07T01:44:46;9.70;;;6.00;;
18445;SDS011;9352;50.888;4.466;2023-09-07T01:47:13;11.70;;;6.30;;
18445;SDS011;9352;50.888;4.466;2023-09-07T01:49:40;9.93;;;5.93;;
18445;SDS011;9352;50.888;4.466;2023-09-07T01:52:07;8.63;;;5.78;;
18445;SDS011;9352;50.888;4.466;2023-09-07T01:54:34;8.55;;;5.82;;
18445;SDS011;9352;50.888;4.466;2023-09-07T01:57:02;10.48;;;6.10;;
18445;SDS011;9352;50.888;4.466;2023-09-07T01:59:30;9.18;;;6.43;;
18445;SDS011;9352;50.888;4.466;2023-09-07T02:01:56;11.73;;;6.05;;
18445;SDS011;9352;50.888;4.466;2023-09-07T02:04:23;9.13;;;5.93;;
18445;SDS011;9352;50.888;4.466;2023-09-07T02:06:50;8.90;;;5.80;;
18445;SDS011;9352;50.888;4.466;2023-09-07T02:09:17;7.22;;;6.40;;
18445;SDS011;9352;50.888;4.466;2023-09-07T02:11:44;12.15;;;6.68;;
18445;SDS011;9352;50.888;4.466;2023-09-07T02:14:12;10.88;;;6.50;;
18445;SDS011;9352;50.888;4.466;2023-09-07T02:16:39;12.20;;;6.88;;
18445;SDS011;9352;50.888;4.466;2023-09-07T02:19:07;14.40;;;6.20;;
18445;SDS011;9352;50.888;4.466;2023-09-07T02:21:33;9.63;;;6.53;;
18445;SDS011;9352;50.888;4.466;2023-09-07T02:24:00;7.85;;;6.43;;
18445;SDS011;9352;50.888;4.466;2023-09-07T02:26:28;10.70;;;6.78;;
18445;SDS011;9352;50.888;4.466;2023-09-07T02:28:55;9.02;;;6.35;;
18445;SDS011;9352;50.888;4.466;2023-09-07T02:31:23;11.65;;;6.60;;
18445;SDS011;9352;50.888;4.466;2023-09-07T02:33:50;8.38;;;6.53;;
18445;SDS011;9352;50.888;4.466;2023-09-07T02:36:17;10.75;;;7.03;;
18445;SDS011;9352;50.888;4.466;2023-09-07T02:38:44;9.70;;;6.57;;
18445;SDS011;9352;50.888;4.466;2023-09-07T02:41:10;9.85;;;6.63;;
18445;SDS011;9352;50.888;4.466;2023-09-07T02:43:37;10.85;;;6.68;;
18445;SDS011;9352;50.888;4.466;2023-09-07T02:46:04;9.32;;;6.70;;
18445;SDS011;9352;50.888;4.466;2023-09-07T02:48:32;10.48;;;6.80;;
18445;SDS011;9352;50.888;4.466;2023-09-07T02:50:59;7.80;;;6.40;;
18445;SDS011;9352;50.888;4.466;2023-09-07T02:53:26;13.65;;;6.63;;
18445;SDS011;9352;50.888;4.466;2023-09-07T02:55:53;12.55;;;6.05;;
18445;SDS011;9352;50.888;4.466;2023-09-07T02:58:20;10.07;;;6.40;;
18445;SDS011;9352;50.888;4.466;2023-09-07T03:00:48;9.48;;;6.20;;
18445;SDS011;9352;50.888;4.466;2023-09-07T03:03:15;12.35;;;6.63;;
18445;SDS011;9352;50.888;4.466;2023-09-07T03:05:43;9.43;;;6.78;;
18445;SDS011;9352;50.888;4.466;2023-09-07T03:08:11;8.23;;;6.38;;
18445;SDS011;9352;50.888;4.466;2023-09-07T03:10:38;9.55;;;6.65;;
18445;SDS011;9352;50.888;4.466;2023-09-07T03:13:05;8.45;;;6.75;;
18445;SDS011;9352;50.888;4.466;2023-09-07T03:15:33;9.60;;;6.20;;
18445;SDS011;9352;50.888;4.466;2023-09-07T03:18:00;8.35;;;6.55;;
18445;SDS011;9352;50.888;4.466;2023-09-07T03:20:27;9.15;;;6.10;;
18445;SDS011;9352;50.888;4.466;2023-09-07T03:22:55;13.15;;;6.35;;
18445;SDS011;9352;50.888;4.466;2023-09-07T03:25:22;13.15;;;6.18;;
18445;SDS011;9352;50.888;4.466;2023-09-07T03:27:49;10.18;;;6.18;;
18445;SDS011;9352;50.888;4.466;2023-09-07T03:30:16;9.32;;;5.85;;
18445;SDS011;9352;50.888;4.466;2023-09-07T03:32:43;7.00;;;6.00;;
18445;SDS011;9352;50.888;4.466;2023-09-07T03:35:11;12.10;;;7.15;;
18445;SDS011;9352;50.888;4.466;2023-09-07T03:37:38;12.95;;;7.53;;
18445;SDS011;9352;50.888;4.466;2023-09-07T03:40:07;14.95;;;8.32;;
18445;SDS011;9352;50.888;4.466;2023-09-07T03:42:35;9.90;;;8.02;;
18445;SDS011;9352;50.888;4.466;2023-09-07T03:45:02;9.75;;;7.03;;
18445;SDS011;9352;50.888;4.466;2023-09-07T03:47:30;13.00;;;8.13;;
18445;SDS011;9352;50.888;4.466;2023-09-07T03:49:57;12.63;;;7.15;;
18445;SDS011;9352;50.888;4.466;2023-09-07T03:52:24;9.07;;;6.95;;
18445;SDS011;9352;50.888;4.466;2023-09-07T03:54:52;16.98;;;7.93;;
18445;SDS011;9352;50.888;4.466;2023-09-07T03:57:21;12.00;;;7.43;;
18445;SDS011;9352;50.888;4.466;2023-09-07T03:59:49;13.38;;;8.32;;
18445;SDS011;9352;50.888;4.466;2023-09-07T04:02:16;11.93;;;7.50;;
18445;SDS011;9352;50.888;4.466;2023-09-07T04:04:43;17.48;;;8.70;;
18445;SDS011;9352;50.888;4.466;2023-09-07T04:07:15;15.35;;;7.85;;
18445;SDS011;9352;50.888;4.466;2023-09-07T04:09:42;13.27;;;7.55;;
18445;SDS011;9352;50.888;4.466;2023-09-07T04:12:09;12.15;;;7.90;;
18445;SDS011;9352;50.888;4.466;2023-09-07T04:14:37;12.65;;;7.32;;
18445;SDS011;9352;50.888;4.466;2023-09-07T04:17:05;23.65;;;8.38;;
18445;SDS011;9352;50.888;4.466;2023-09-07T04:19:32;19.75;;;8.23;;
18445;SDS011;9352;50.888;4.466;2023-09-07T04:21:59;12.38;;;8.82;;
18445;SDS011;9352;50.888;4.466;2023-09-07T04:24:27;21.92;;;9.02;;
18445;SDS011;9352;50.888;4.466;2023-09-07T04:26:57;17.20;;;9.05;;
18445;SDS011;9352;50.888;4.466;2023-09-07T04:29:24;15.93;;;8.35;;
18445;SDS011;9352;50.888;4.466;2023-09-07T04:31:53;17.02;;;8.60;;
18445;SDS011;9352;50.888;4.466;2023-09-07T04:34:20;15.45;;;8.55;;
18445;SDS011;9352;50.888;4.466;2023-09-07T04:36:48;15.55;;;8.27;;
18445;SDS011;9352;50.888;4.466;2023-09-07T04:39:15;22.90;;;8.20;;
18445;SDS011;9352;50.888;4.466;2023-09-07T04:41:43;18.13;;;8.15;;
18445;SDS011;9352;50.888;4.466;2023-09-07T04:44:09;19.63;;;8.60;;
18445;SDS011;9352;50.888;4.466;2023-09-07T04:46:36;14.10;;;8.15;;
18445;SDS011;9352;50.888;4.466;2023-09-07T04:49:05;17.65;;;9.10;;
18445;SDS011;9352;50.888;4.466;2023-09-07T04:51:33;20.10;;;8.48;;
18445;SDS011;9352;50.888;4.466;2023-09-07T04:54:00;16.02;;;8.20;;
18445;SDS011;9352;50.888;4.466;2023-09-07T04:56:26;21.98;;;8.63;;
18445;SDS011;9352;50.888;4.466;2023-09-07T04:58:54;15.82;;;9.27;;
18445;SDS011;9352;50.888;4.466;2023-09-07T05:01:21;19.67;;;8.65;;
18445;SDS011;9352;50.888;4.466;2023-09-07T05:03:47;13.07;;;8.45;;
18445;SDS011;9352;50.888;4.466;2023-09-07T05:06:17;12.20;;;8.70;;
18445;SDS011;9352;50.888;4.466;2023-09-07T05:08:44;21.75;;;9.07;;
18445;SDS011;9352;50.888;4.466;2023-09-07T05:11:11;18.42;;;9.30;;
18445;SDS011;9352;50.888;4.466;2023-09-07T05:13:38;17.52;;;9.23;;
18445;SDS011;9352;50.888;4.466;2023-09-07T05:16:04;13.75;;;8.55;;
18445;SDS011;9352;50.888;4.466;2023-09-07T05:18:31;13.45;;;8.93;;
18445;SDS011;9352;50.888;4.466;2023-09-07T05:20:58;22.48;;;8.93;;
18445;SDS011;9352;50.888;4.466;2023-09-07T05:23:26;28.20;;;10.27;;
18445;SDS011;9352;50.888;4.466;2023-09-07T05:25:54;15.55;;;9.90;;
18445;SDS011;9352;50.888;4.466;2023-09-07T05:28:21;28.50;;;10.00;;
18445;SDS011;9352;50.888;4.466;2023-09-07T05:30:49;17.25;;;9.50;;
18445;SDS011;9352;50.888;4.466;2023-09-07T05:33:16;18.60;;;9.30;;
18445;SDS011;9352;50.888;4.466;2023-09-07T05:35:44;24.08;;;10.48;;
18445;SDS011;9352;50.888;4.466;2023-09-07T05:38:11;24.48;;;10.63;;
18445;SDS011;9352;50.888;4.466;2023-09-07T05:40:40;18.33;;;10.02;;
18445;SDS011;9352;50.888;4.466;2023-09-07T05:43:09;17.70;;;9.52;;
18445;SDS011;9352;50.888;4.466;2023-09-07T05:45:37;18.45;;;9.77;;
18445;SDS011;9352;50.888;4.466;2023-09-07T05:48:06;23.05;;;9.50;;
18445;SDS011;9352;50.888;4.466;2023-09-07T05:50:34;28.23;;;9.90;;
18445;SDS011;9352;50.888;4.466;2023-09-07T05:53:02;19.88;;;9.32;;
18445;SDS011;9352;50.888;4.466;2023-09-07T05:55:29;28.15;;;9.80;;
18445;SDS011;9352;50.888;4.466;2023-09-07T05:57:57;28.20;;;9.75;;
18445;SDS011;9352;50.888;4.466;2023-09-07T06:00:25;18.75;;;9.93;;
18445;SDS011;9352;50.888;4.466;2023-09-07T06:02:52;18.33;;;9.73;;
18445;SDS011;9352;50.888;4.466;2023-09-07T06:05:19;58.88;;;20.17;;
18445;SDS011;9352;50.888;4.466;2023-09-07T06:07:46;23.67;;;10.00;;
18445;SDS011;9352;50.888;4.466;2023-09-07T06:10:13;19.63;;;10.20;;
18445;SDS011;9352;50.888;4.466;2023-09-07T06:12:40;21.83;;;10.63;;
18445;SDS011;9352;50.888;4.466;2023-09-07T06:15:09;24.90;;;9.05;;
18445;SDS011;9352;50.888;4.466;2023-09-07T06:17:36;21.38;;;10.07;;
18445;SDS011;9352;50.888;4.466;2023-09-07T06:20:04;25.38;;;10.30;;
18445;SDS011;9352;50.888;4.466;2023-09-07T06:22:32;23.48;;;9.73;;
18445;SDS011;9352;50.888;4.466;2023-09-07T06:24:58;20.13;;;9.55;;
18445;SDS011;9352;50.888;4.466;2023-09-07T06:27:25;22.77;;;9.63;;
18445;SDS011;9352;50.888;4.466;2023-09-07T06:29:52;19.83;;;10.63;;
18445;SDS011;9352;50.888;4.466;2023-09-07T06:32:20;21.23;;;9.27;;
18445;SDS011;9352;50.888;4.466;2023-09-07T06:34:47;11.00;;;8.52;;
18445;SDS011;9352;50.888;4.466;2023-09-07T06:37:14;17.80;;;9.60;;
18445;SDS011;9352;50.888;4.466;2023-09-07T06:39:41;16.95;;;9.45;;
18445;SDS011;9352;50.888;4.466;2023-09-07T06:42:08;21.75;;;9.35;;
18445;SDS011;9352;50.888;4.466;2023-09-07T06:44:36;14.20;;;8.63;;
18445;SDS011;9352;50.888;4.466;2023-09-07T06:47:03;14.85;;;8.52;;
18445;SDS011;9352;50.888;4.466;2023-09-07T06:49:31;12.82;;;8.10;;
18445;SDS011;9352;50.888;4.466;2023-09-07T06:51:58;11.13;;;7.60;;
18445;SDS011;9352;50.888;4.466;2023-09-07T06:54:25;15.32;;;8.32;;
18445;SDS011;9352;50.888;4.466;2023-09-07T06:56:53;16.65;;;8.27;;
18445;SDS011;9352;50.888;4.466;2023-09-07T06:59:20;12.70;;;6.97;;
18445;SDS011;9352;50.888;4.466;2023-09-07T07:01:47;17.05;;;7.72;;
18445;SDS011;9352;50.888;4.466;2023-09-07T07:04:14;12.88;;;7.60;;
18445;SDS011;9352;50.888;4.466;2023-09-07T07:06:42;11.15;;;7.13;;
18445;SDS011;9352;50.888;4.466;2023-09-07T07:09:09;14.23;;;7.18;;
18445;SDS011;9352;50.888;4.466;2023-09-07T07:11:36;13.80;;;7.22;;
18445;SDS011;9352;50.888;4.466;2023-09-07T07:14:04;11.98;;;7.07;;
18445;SDS011;9352;50.888;4.466;2023-09-07T07:16:31;13.00;;;6.75;;
18445;SDS011;9352;50.888;4.466;2023-09-07T07:18:58;12.30;;;6.90;;
18445;SDS011;9352;50.888;4.466;2023-09-07T07:21:24;9.10;;;6.50;;
18445;SDS011;9352;50.888;4.466;2023-09-07T07:23:53;14.55;;;6.60;;
18445;SDS011;9352;50.888;4.466;2023-09-07T07:26:19;11.98;;;6.78;;
18445;SDS011;9352;50.888;4.466;2023-09-07T07:28:46;11.85;;;7.13;;
18445;SDS011;9352;50.888;4.466;2023-09-07T07:31:13;11.20;;;7.35;;
18445;SDS011;9352;50.888;4.466;2023-09-07T07:33:40;8.02;;;6.13;;
18445;SDS011;9352;50.888;4.466;2023-09-07T07:36:07;16.63;;;6.68;;
18445;SDS011;9352;50.888;4.466;2023-09-07T07:38:34;11.48;;;6.50;;
18445;SDS011;9352;50.888;4.466;2023-09-07T07:41:03;7.85;;;6.13;;
18445;SDS011;9352;50.888;4.466;2023-09-07T07:43:30;9.90;;;5.90;;
18445;SDS011;9352;50.888;4.466;2023-09-07T07:45:58;10.10;;;6.85;;
18445;SDS011;9352;50.888;4.466;2023-09-07T07:48:25;9.30;;;6.15;;
18445;SDS011;9352;50.888;4.466;2023-09-07T07:50:53;9.07;;;6.47;;
18445;SDS011;9352;50.888;4.466;2023-09-07T07:53:20;16.05;;;5.80;;
18445;SDS011;9352;50.888;4.466;2023-09-07T07:55:47;16.05;;;5.85;;
18445;SDS011;9352;50.888;4.466;2023-09-07T07:58:15;14.50;;;6.35;;
18445;SDS011;9352;50.888;4.466;2023-09-07T08:00:42;11.75;;;5.50;;
18445;SDS011;9352;50.888;4.466;2023-09-07T08:03:12;8.75;;;5.75;;
18445;SDS011;9352;50.888;4.466;2023-09-07T08:05:39;9.68;;;5.85;;
18445;SDS011;9352;50.888;4.466;2023-09-07T08:08:06;10.45;;;5.75;;
18445;SDS011;9352;50.888;4.466;2023-09-07T08:10:33;9.60;;;5.50;;
18445;SDS011;9352;50.888;4.466;2023-09-07T08:13:01;11.77;;;5.65;;
18445;SDS011;9352;50.888;4.466;2023-09-07T08:15:31;10.85;;;5.45;;
18445;SDS011;9352;50.888;4.466;2023-09-07T08:17:58;10.20;;;5.50;;
18445;SDS011;9352;50.888;4.466;2023-09-07T08:20:25;12.30;;;5.75;;
18445;SDS011;9352;50.888;4.466;2023-09-07T08:22:52;7.05;;;5.07;;
18445;SDS011;9352;50.888;4.466;2023-09-07T08:25:19;8.73;;;5.10;;
18445;SDS011;9352;50.888;4.466;2023-09-07T08:27:46;8.70;;;4.85;;
18445;SDS011;9352;50.888;4.466;2023-09-07T08:30:16;9.57;;;4.88;;
18445;SDS011;9352;50.888;4.466;2023-09-07T08:32:45;7.22;;;5.47;;
18445;SDS011;9352;50.888;4.466;2023-09-07T08:35:12;7.32;;;5.28;;
18445;SDS011;9352;50.888;4.466;2023-09-07T08:37:40;8.18;;;4.85;;
18445;SDS011;9352;50.888;4.466;2023-09-07T08:40:07;6.95;;;4.60;;
18445;SDS011;9352;50.888;4.466;2023-09-07T08:42:36;7.63;;;4.53;;
18445;SDS011;9352;50.888;4.466;2023-09-07T08:45:04;19.88;;;5.18;;
18445;SDS011;9352;50.888;4.466;2023-09-07T08:47:34;8.93;;;4.78;;
18445;SDS011;9352;50.888;4.466;2023-09-07T08:50:03;6.75;;;4.65;;
18445;SDS011;9352;50.888;4.466;2023-09-07T08:52:33;10.48;;;4.50;;
18445;SDS011;9352;50.888;4.466;2023-09-07T08:55:00;10.73;;;4.68;;
18445;SDS011;9352;50.888;4.466;2023-09-07T08:57:29;7.00;;;4.60;;
18445;SDS011;9352;50.888;4.466;2023-09-07T08:59:57;6.65;;;3.75;;
18445;SDS011;9352;50.888;4.466;2023-09-07T09:02:24;8.40;;;4.38;;
18445;SDS011;9352;50.888;4.466;2023-09-07T09:04:51;22.42;;;5.55;;
18445;SDS011;9352;50.888;4.466;2023-09-07T09:07:19;6.85;;;4.20;;
18445;SDS011;9352;50.888;4.466;2023-09-07T09:09:47;6.72;;;4.22;;
18445;SDS011;9352;50.888;4.466;2023-09-07T09:12:14;4.45;;;4.05;;
18445;SDS011;9352;50.888;4.466;2023-09-07T09:14:42;4.30;;;3.90;;
18445;SDS011;9352;50.888;4.466;2023-09-07T09:17:13;3.90;;;3.50;;
18445;SDS011;9352;50.888;4.466;2023-09-07T09:19:41;11.98;;;4.53;;
18445;SDS011;9352;50.888;4.466;2023-09-07T09:22:08;9.38;;;4.38;;
18445;SDS011;9352;50.888;4.466;2023-09-07T09:24:37;6.40;;;4.20;;
18445;SDS011;9352;50.888;4.466;2023-09-07T09:27:04;10.20;;;4.18;;
18445;SDS011;9352;50.888;4.466;2023-09-07T09:29:32;8.30;;;4.25;;
18445;SDS011;9352;50.888;4.466;2023-09-07T09:31:59;4.20;;;3.75;;
18445;SDS011;9352;50.888;4.466;2023-09-07T09:34:30;4.15;;;3.80;;
18445;SDS011;9352;50.888;4.466;2023-09-07T09:36:59;6.43;;;4.18;;
18445;SDS011;9352;50.888;4.466;2023-09-07T09:39:27;4.45;;;4.05;;
18445;SDS011;9352;50.888;4.466;2023-09-07T09:41:55;5.20;;;4.00;;
18445;SDS011;9352;50.888;4.466;2023-09-07T09:44:23;5.93;;;4.45;;
18445;SDS011;9352;50.888;4.466;2023-09-07T09:46:51;9.70;;;4.20;;
18445;SDS011;9352;50.888;4.466;2023-09-07T09:49:20;5.75;;;4.05;;
18445;SDS011;9352;50.888;4.466;2023-09-07T09:51:48;4.75;;;3.90;;
18445;SDS011;9352;50.888;4.466;2023-09-07T09:54:16;8.05;;;3.80;;
18445;SDS011;9352;50.888;4.466;2023-09-07T09:56:44;4.55;;;4.15;;
18445;SDS011;9352;50.888;4.466;2023-09-07T09:59:13;5.68;;;3.97;;
18445;SDS011;9352;50.888;4.466;2023-09-07T10:01:41;5.90;;;3.95;;
18445;SDS011;9352;50.888;4.466;2023-09-07T10:04:12;5.43;;;4.07;;
18445;SDS011;9352;50.888;4.466;2023-09-07T10:06:49;4.38;;;3.97;;
18445;SDS011;9352;50.888;4.466;2023-09-07T10:09:19;6.72;;;4.20;;
18445;SDS011;9352;50.888;4.466;2023-09-07T10:11:50;9.13;;;3.90;;
18445;SDS011;9352;50.888;4.466;2023-09-07T10:14:20;4.05;;;3.85;;
18445;SDS011;9352;50.888;4.466;2023-09-07T10:16:48;9.68;;;3.75;;
18445;SDS011;9352;50.888;4.466;2023-09-07T10:19:18;4.78;;;3.72;;
18445;SDS011;9352;50.888;4.466;2023-09-07T10:21:47;5.95;;;3.80;;
18445;SDS011;9352;50.888;4.466;2023-09-07T10:24:24;5.60;;;3.85;;
18445;SDS011;9352;50.888;4.466;2023-09-07T10:26:55;6.13;;;3.72;;
18445;SDS011;9352;50.888;4.466;2023-09-07T10:29:24;7.90;;;4.07;;
18445;SDS011;9352;50.888;4.466;2023-09-07T10:31:52;6.68;;;3.80;;
18445;SDS011;9352;50.888;4.466;2023-09-07T10:34:20;4.20;;;3.80;;
18445;SDS011;9352;50.888;4.466;2023-09-07T10:36:47;6.80;;;4.15;;
18445;SDS011;9352;50.888;4.466;2023-09-07T10:39:18;4.18;;;3.72;;
18445;SDS011;9352;50.888;4.466;2023-09-07T10:41:45;4.20;;;3.90;;
18445;SDS011;9352;50.888;4.466;2023-09-07T10:44:13;7.05;;;3.90;;
18445;SDS011;9352;50.888;4.466;2023-09-07T10:46:41;9.05;;;4.53;;
18445;SDS011;9352;50.888;4.466;2023-09-07T10:49:08;8.10;;;4.00;;
18445;SDS011;9352;50.888;4.466;2023-09-07T10:51:41;8.73;;;3.92;;
18445;SDS011;9352;50.888;4.466;2023-09-07T10:54:21;8.98;;;3.83;;
18445;SDS011;9352;50.888;4.466;2023-09-07T10:56:50;8.00;;;4.22;;
18445;SDS011;9352;50.888;4.466;2023-09-07T10:59:17;4.25;;;3.78;;
18445;SDS011;9352;50.888;4.466;2023-09-07T11:01:45;4.40;;;4.00;;
18445;SDS011;9352;50.888;4.466;2023-09-07T11:04:13;6.05;;;3.60;;
18445;SDS011;9352;50.888;4.466;2023-09-07T11:06:42;10.77;;;4.13;;
18445;SDS011;9352;50.888;4.466;2023-09-07T11:09:09;4.22;;;3.83;;
18445;SDS011;9352;50.888;4.466;2023-09-07T11:11:36;5.00;;;3.90;;
18445;SDS011;9352;50.888;4.466;2023-09-07T11:14:03;10.10;;;3.75;;
18445;SDS011;9352;50.888;4.466;2023-09-07T11:16:32;7.22;;;3.67;;
18445;SDS011;9352;50.888;4.466;2023-09-07T11:19:03;7.78;;;3.60;;
18445;SDS011;9352;50.888;4.466;2023-09-07T11:21:30;5.07;;;3.50;;
18445;SDS011;9352;50.888;4.466;2023-09-07T11:23:59;5.88;;;3.40;;
18445;SDS011;9352;50.888;4.466;2023-09-07T11:26:29;4.30;;;3.15;;
18445;SDS011;9352;50.888;4.466;2023-09-07T11:29:06;5.10;;;3.50;;
18445;SDS011;9352;50.888;4.466;2023-09-07T11:31:33;3.55;;;3.38;;
18445;SDS011;9352;50.888;4.466;2023-09-07T11:34:00;5.20;;;3.47;;
18445;SDS011;9352;50.888;4.466;2023-09-07T11:36:28;5.30;;;3.80;;
18445;SDS011;9352;50.888;4.466;2023-09-07T11:38:55;3.20;;;3.00;;
18445;SDS011;9352;50.888;4.466;2023-09-07T11:41:22;5.50;;;3.38;;
18445;SDS011;9352;50.888;4.466;2023-09-07T11:43:49;5.97;;;3.20;;
18445;SDS011;9352;50.888;4.466;2023-09-07T11:46:16;11.60;;;3.40;;
18445;SDS011;9352;50.888;4.466;2023-09-07T11:48:43;4.82;;;3.33;;
18445;SDS011;9352;50.888;4.466;2023-09-07T11:51:10;5.07;;;3.38;;
18445;SDS011;9352;50.888;4.466;2023-09-07T11:53:38;6.93;;;3.53;;
18445;SDS011;9352;50.888;4.466;2023-09-07T11:56:05;6.28;;;3.40;;
18445;SDS011;9352;50.888;4.466;2023-09-07T11:58:32;6.07;;;3.30;;
18445;SDS011;9352;50.888;4.466;2023-09-07T12:00:59;9.10;;;3.13;;
18445;SDS011;9352;50.888;4.466;2023-09-07T12:03:26;3.92;;;3.58;;
18445;SDS011;9352;50.888;4.466;2023-09-07T12:05:55;4.55;;;3.20;;
18445;SDS011;9352;50.888;4.466;2023-09-07T12:08:22;3.80;;;3.50;;
18445;SDS011;9352;50.888;4.466;2023-09-07T12:10:50;4.07;;;3.45;;
18445;SDS011;9352;50.888;4.466;2023-09-07T12:13:17;3.53;;;3.33;;
18445;SDS011;9352;50.888;4.466;2023-09-07T12:15:44;3.45;;;3.17;;
18445;SDS011;9352;50.888;4.466;2023-09-07T12:18:11;3.83;;;3.53;;
18445;SDS011;9352;50.888;4.466;2023-09-07T12:20:38;4.43;;;3.75;;
18445;SDS011;9352;50.888;4.466;2023-09-07T12:23:05;5.25;;;3.65;;
18445;SDS011;9352;50.888;4.466;2023-09-07T12:25:32;12.45;;;4.10;;
18445;SDS011;9352;50.888;4.466;2023-09-07T12:28:00;7.38;;;3.47;;
18445;SDS011;9352;50.888;4.466;2023-09-07T12:30:27;8.50;;;3.80;;
18445;SDS011;9352;50.888;4.466;2023-09-07T12:32:54;3.90;;;3.60;;
18445;SDS011;9352;50.888;4.466;2023-09-07T12:35:21;3.75;;;3.53;;
18445;SDS011;9352;50.888;4.466;2023-09-07T12:37:47;5.22;;;3.42;;
18445;SDS011;9352;50.888;4.466;2023-09-07T12:40:15;8.40;;;3.80;;
18445;SDS011;9352;50.888;4.466;2023-09-07T12:42:42;3.60;;;3.30;;
18445;SDS011;9352;50.888;4.466;2023-09-07T12:45:12;4.68;;;3.90;;
18445;SDS011;9352;50.888;4.466;2023-09-07T12:47:39;5.18;;;4.43;;
18445;SDS011;9352;50.888;4.466;2023-09-07T12:50:06;3.95;;;3.75;;
18445;SDS011;9352;50.888;4.466;2023-09-07T12:52:34;4.05;;;3.70;;
18445;SDS011;9352;50.888;4.466;2023-09-07T12:55:02;3.97;;;3.67;;
18445;SDS011;9352;50.888;4.466;2023-09-07T12:57:30;6.93;;;4.10;;
18445;SDS011;9352;50.888;4.466;2023-09-07T12:59:57;3.45;;;3.28;;
18445;SDS011;9352;50.888;4.466;2023-09-07T13:02:26;6.60;;;3.50;;
18445;SDS011;9352;50.888;4.466;2023-09-07T13:04:53;5.35;;;3.80;;
18445;SDS011;9352;50.888;4.466;2023-09-07T13:07:21;5.00;;;4.10;;
18445;SDS011;9352;50.888;4.466;2023-09-07T13:09:48;9.65;;;3.92;;
18445;SDS011;9352;50.888;4.466;2023-09-07T13:12:15;4.28;;;3.95;;
18445;SDS011;9352;50.888;4.466;2023-09-07T13:14:42;12.40;;;3.95;;
18445;SDS011;9352;50.888;4.466;2023-09-07T13:17:11;13.85;;;4.30;;
18445;SDS011;9352;50.888;4.466;2023-09-07T13:19:40;7.93;;;4.40;;
18445;SDS011;9352;50.888;4.466;2023-09-07T13:22:08;5.78;;;4.45;;
18445;SDS011;9352;50.888;4.466;2023-09-07T13:24:35;4.50;;;4.05;;
18445;SDS011;9352;50.888;4.466;2023-09-07T13:27:02;6.68;;;4.18;;
18445;SDS011;9352;50.888;4.466;2023-09-07T13:29:29;16.85;;;4.45;;
18445;SDS011;9352;50.888;4.466;2023-09-07T13:31:57;6.72;;;4.03;;
18445;SDS011;9352;50.888;4.466;2023-09-07T13:34:24;5.07;;;3.65;;
18445;SDS011;9352;50.888;4.466;2023-09-07T13:36:53;5.85;;;4.00;;
18445;SDS011;9352;50.888;4.466;2023-09-07T13:39:20;4.60;;;3.88;;
18445;SDS011;9352;50.888;4.466;2023-09-07T13:41:47;17.85;;;4.45;;
18445;SDS011;9352;50.888;4.466;2023-09-07T13:44:14;7.68;;;4.55;;
18445;SDS011;9352;50.888;4.466;2023-09-07T13:46:42;5.32;;;4.32;;
18445;SDS011;9352;50.888;4.466;2023-09-07T13:49:09;7.72;;;4.10;;
18445;SDS011;9352;50.888;4.466;2023-09-07T13:51:37;8.75;;;4.00;;
18445;SDS011;9352;50.888;4.466;2023-09-07T13:54:06;8.13;;;4.95;;
18445;SDS011;9352;50.888;4.466;2023-09-07T13:56:33;8.45;;;4.32;;
18445;SDS011;9352;50.888;4.466;2023-09-07T13:59:01;8.02;;;4.55;;
18445;SDS011;9352;50.888;4.466;2023-09-07T14:01:28;7.47;;;4.45;;
18445;SDS011;9352;50.888;4.466;2023-09-07T14:03:55;4.80;;;4.05;;
18445;SDS011;9352;50.888;4.466;2023-09-07T14:06:22;6.30;;;4.30;;
18445;SDS011;9352;50.888;4.466;2023-09-07T14:08:49;5.38;;;4.20;;
18445;SDS011;9352;50.888;4.466;2023-09-07T14:11:17;8.70;;;4.20;;
18445;SDS011;9352;50.888;4.466;2023-09-07T14:13:44;5.97;;;3.95;;
18445;SDS011;9352;50.888;4.466;2023-09-07T14:16:14;11.38;;;5.85;;
18445;SDS011;9352;50.888;4.466;2023-09-07T14:18:41;8.00;;;4.35;;
18445;SDS011;9352;50.888;4.466;2023-09-07T14:21:09;8.10;;;4.38;;
18445;SDS011;9352;50.888;4.466;2023-09-07T14:23:36;4.40;;;4.00;;
18445;SDS011;9352;50.888;4.466;2023-09-07T14:26:03;4.38;;;3.90;;
18445;SDS011;9352;50.888;4.466;2023-09-07T14:28:31;11.25;;;4.55;;
18445;SDS011;9352;50.888;4.466;2023-09-07T14:30:58;6.32;;;4.20;;
18445;SDS011;9352;50.888;4.466;2023-09-07T14:33:28;7.20;;;3.95;;
18445;SDS011;9352;50.888;4.466;2023-09-07T14:35:55;5.95;;;4.10;;
18445;SDS011;9352;50.888;4.466;2023-09-07T14:38:22;4.10;;;3.70;;
18445;SDS011;9352;50.888;4.466;2023-09-07T14:40:51;7.93;;;4.03;;
18445;SDS011;9352;50.888;4.466;2023-09-07T14:43:20;6.07;;;4.13;;
18445;SDS011;9352;50.888;4.466;2023-09-07T14:45:48;5.65;;;3.75;;
18445;SDS011;9352;50.888;4.466;2023-09-07T14:48:15;7.00;;;4.10;;
18445;SDS011;9352;50.888;4.466;2023-09-07T14:50:42;7.13;;;4.50;;
18445;SDS011;9352;50.888;4.466;2023-09-07T14:53:09;8.02;;;4.03;;
18445;SDS011;9352;50.888;4.466;2023-09-07T14:55:36;5.50;;;4.38;;
18445;SDS011;9352;50.888;4.466;2023-09-07T14:58:03;4.18;;;3.80;;